createdAt,value
2019-04-25T00:00:38.030Z,0.00
2019-04-25T00:01:38.289Z,0.00
2019-04-25T00:02:38.241Z,0.00
2019-04-25T00:03:38.347Z,0.00
2019-04-25T00:04:38.706Z,0.00
2019-04-25T00:05:38.719Z,0.00
2019-04-25T00:06:38.592Z,0.00
2019-04-25T00:07:37.670Z,0.00
2019-04-25T00:08:37.553Z,0.00
2019-04-25T00:09:37.597Z,0.00
2019-04-25T00:10:37.990Z,0.00
2019-04-25T00:11:37.829Z,0.00
2019-04-25T00:12:37.959Z,0.00
2019-04-25T00:13:38.033Z,0.00
2019-04-25T00:14:38.065Z,0.00
2019-04-25T00:15:38.298Z,0.00
2019-04-25T00:16:37.469Z,0.00
2019-04-25T00:17:38.502Z,0.00
2019-04-25T00:18:38.528Z,0.00
2019-04-25T00:19:38.653Z,0.00
2019-04-25T00:20:38.810Z,0.00
2019-04-25T00:21:38.222Z,0.00
2019-04-25T00:22:58.456Z,0.00
2019-04-25T00:23:37.400Z,0.00
2019-04-25T00:24:37.431Z,0.00
2019-04-25T00:25:37.358Z,0.00
2019-04-25T00:26:37.382Z,0.00
2019-04-25T00:27:37.373Z,0.00
2019-04-25T00:28:37.322Z,0.00
2019-04-25T00:29:37.349Z,0.00
2019-04-25T00:30:37.324Z,0.00
2019-04-25T00:31:37.313Z,0.00
2019-04-25T00:32:37.354Z,0.00
2019-04-25T00:33:37.302Z,0.00
2019-04-25T00:34:37.259Z,0.00
2019-04-25T00:35:37.318Z,0.00
2019-04-25T00:36:39.105Z,0.00
2019-04-25T00:37:37.479Z,0.00
2019-04-25T00:38:37.200Z,0.00
2019-04-25T00:39:37.211Z,0.00
2019-04-25T00:40:37.191Z,0.00
2019-04-25T00:41:37.194Z,0.00
2019-04-25T00:42:37.179Z,0.00
2019-04-25T00:43:37.200Z,0.00
2019-04-25T00:44:37.133Z,0.00
2019-04-25T00:45:37.125Z,0.00
2019-04-25T00:46:37.975Z,0.00
2019-04-25T00:47:37.105Z,0.00
2019-04-25T00:48:37.076Z,0.00
2019-04-25T00:49:38.481Z,0.00
2019-04-25T00:50:37.069Z,0.00
2019-04-25T00:51:37.074Z,0.00
2019-04-25T00:52:37.065Z,0.00
2019-04-25T00:53:37.047Z,0.00
2019-04-25T00:54:37.033Z,0.00
2019-04-25T00:55:37.047Z,0.00
2019-04-25T00:56:36.994Z,0.00
2019-04-25T00:57:37.009Z,0.00
2019-04-25T00:58:36.974Z,0.00
2019-04-25T00:59:36.970Z,0.00
2019-04-25T01:00:36.985Z,0.00
2019-04-25T01:01:36.935Z,0.00
2019-04-25T01:02:36.929Z,0.00
2019-04-25T01:03:36.931Z,0.00
2019-04-25T01:04:36.936Z,0.00
2019-04-25T01:05:36.907Z,0.00
2019-04-25T01:06:36.894Z,0.00
2019-04-25T01:07:37.880Z,0.00
2019-04-25T01:08:38.474Z,0.00
2019-04-25T01:09:36.880Z,0.00
2019-04-25T01:10:36.879Z,0.00
2019-04-25T01:11:38.383Z,0.00
2019-04-25T01:12:36.814Z,0.00
2019-04-25T01:13:36.815Z,0.00
2019-04-25T01:14:36.801Z,0.00
2019-04-25T01:15:36.815Z,0.00
2019-04-25T01:16:36.805Z,0.00
2019-04-25T01:17:36.757Z,0.00
2019-04-25T01:18:37.492Z,0.00
2019-04-25T01:19:36.738Z,0.00
2019-04-25T01:20:36.749Z,0.00
2019-04-25T01:21:36.754Z,0.00
2019-04-25T01:22:36.781Z,0.00
2019-04-25T01:23:36.683Z,0.00
2019-04-25T01:24:36.670Z,0.00
2019-04-25T01:25:41.098Z,0.00
2019-04-25T01:26:38.451Z,0.00
2019-04-25T01:27:36.671Z,0.00
2019-04-25T01:28:36.651Z,0.00
2019-04-25T01:29:36.619Z,0.00
2019-04-25T01:30:36.662Z,0.00
2019-04-25T01:31:36.613Z,0.00
2019-04-25T01:32:36.576Z,0.00
2019-04-25T01:33:37.455Z,0.00
2019-04-25T01:34:37.443Z,0.00
2019-04-25T01:35:36.537Z,0.00
2019-04-25T01:36:36.541Z,0.00
2019-04-25T01:37:36.578Z,0.00
2019-04-25T01:38:36.531Z,0.00
2019-04-25T01:39:36.508Z,0.00
2019-04-25T01:40:36.501Z,0.00
2019-04-25T01:41:36.483Z,0.00
2019-04-25T01:42:36.456Z,0.00
2019-04-25T01:43:36.477Z,0.00
2019-04-25T01:44:36.459Z,0.00
2019-04-25T01:45:36.460Z,0.00
2019-04-25T01:46:36.423Z,0.00
2019-04-25T01:47:36.407Z,0.00
2019-04-25T01:48:36.429Z,0.00
2019-04-25T01:49:36.411Z,0.00
2019-04-25T01:50:36.390Z,0.00
2019-04-25T01:51:36.357Z,0.00
2019-04-25T01:52:36.354Z,0.00
2019-04-25T01:53:36.346Z,0.00
2019-04-25T01:54:36.337Z,0.00
2019-04-25T01:55:37.327Z,0.00
2019-04-25T01:56:36.341Z,0.00
2019-04-25T01:57:36.304Z,0.00
2019-04-25T01:58:36.280Z,0.00
2019-04-25T01:59:36.299Z,0.00
2019-04-25T02:00:36.255Z,0.00
2019-04-25T02:01:36.299Z,0.00
2019-04-25T02:02:36.265Z,0.00
2019-04-25T02:03:36.235Z,0.00
2019-04-25T02:04:36.237Z,0.00
2019-04-25T02:05:36.225Z,0.00
2019-04-25T02:06:36.204Z,0.00
2019-04-25T02:07:36.273Z,0.00
2019-04-25T02:08:36.170Z,0.00
2019-04-25T02:09:36.158Z,0.00
2019-04-25T02:10:36.136Z,0.00
2019-04-25T02:11:36.166Z,0.00
2019-04-25T02:12:37.123Z,0.00
2019-04-25T02:13:36.119Z,0.00
2019-04-25T02:14:36.103Z,0.00
2019-04-25T02:15:36.088Z,0.00
2019-04-25T02:16:36.466Z,0.00
2019-04-25T02:17:36.079Z,0.00
2019-04-25T02:18:36.055Z,0.00
2019-04-25T02:19:36.091Z,0.00
2019-04-25T02:20:36.032Z,0.00
2019-04-25T02:21:36.023Z,0.00
2019-04-25T02:22:41.499Z,0.00
2019-04-25T02:23:36.950Z,0.00
2019-04-25T02:24:35.981Z,0.00
2019-04-25T02:25:36.494Z,0.00
2019-04-25T02:26:35.996Z,0.00
2019-04-25T02:27:36.018Z,0.00
2019-04-25T02:28:35.948Z,0.00
2019-04-25T02:29:35.954Z,0.00
2019-04-25T02:30:35.951Z,0.00
2019-04-25T02:31:36.483Z,0.00
2019-04-25T02:32:37.084Z,0.00
2019-04-25T02:33:36.534Z,0.00
2019-04-25T02:34:36.022Z,0.00
2019-04-25T02:35:35.931Z,0.00
2019-04-25T02:36:35.986Z,0.00
2019-04-25T02:37:36.912Z,0.00
2019-04-25T02:38:35.846Z,0.00
2019-04-25T02:39:37.462Z,0.00
2019-04-25T02:40:35.850Z,0.00
2019-04-25T02:41:35.826Z,0.00
2019-04-25T02:42:35.793Z,0.00
2019-04-25T02:43:35.795Z,0.00
2019-04-25T02:44:35.793Z,0.00
2019-04-25T02:45:35.786Z,0.00
2019-04-25T02:46:37.265Z,0.00
2019-04-25T02:47:35.729Z,0.00
2019-04-25T02:48:35.727Z,0.00
2019-04-25T02:49:38.826Z,0.00
2019-04-25T02:50:35.705Z,0.00
2019-04-25T02:51:35.731Z,0.00
2019-04-25T02:53:53.724Z,0.00
2019-04-25T02:54:47.965Z,0.00
2019-04-25T02:55:47.920Z,0.00
2019-04-25T02:56:48.112Z,0.00
2019-04-25T02:57:47.846Z,0.00
2019-04-25T02:58:47.804Z,0.00
2019-04-25T02:59:47.815Z,0.00
2019-04-25T03:00:57.325Z,0.00
2019-04-25T03:01:47.764Z,0.00
2019-04-25T03:02:47.793Z,0.00
2019-04-25T03:03:47.780Z,0.00
2019-04-25T03:04:47.867Z,0.00
2019-04-25T03:05:48.010Z,0.00
2019-04-25T03:06:47.719Z,0.00
2019-04-25T03:07:47.693Z,0.00
2019-04-25T03:08:47.708Z,0.00
2019-04-25T03:09:47.702Z,0.00
2019-04-25T03:10:47.645Z,0.00
2019-04-25T03:11:48.631Z,0.00
2019-04-25T03:12:47.657Z,0.00
2019-04-25T03:13:47.626Z,0.00
2019-04-25T03:14:47.638Z,0.00
2019-04-25T03:15:47.601Z,0.00
2019-04-25T03:16:47.620Z,0.00
2019-04-25T03:17:47.584Z,0.00
2019-04-25T03:18:47.562Z,0.00
2019-04-25T03:19:47.607Z,0.00
2019-04-25T03:20:47.558Z,0.00
2019-04-25T03:21:47.555Z,0.00
2019-04-25T03:22:48.528Z,0.00
2019-04-25T03:23:47.527Z,0.00
2019-04-25T03:24:47.546Z,4.00
2019-04-25T03:25:47.502Z,4.00
2019-04-25T03:26:47.485Z,0.00
2019-04-25T03:27:47.516Z,4.00
2019-04-25T03:28:47.462Z,4.00
2019-04-25T03:29:47.483Z,4.00
2019-04-25T03:30:48.513Z,4.00
2019-04-25T03:31:47.445Z,4.00
2019-04-25T03:32:51.253Z,4.00
2019-04-25T03:33:48.184Z,8.00
2019-04-25T03:34:47.403Z,8.00
2019-04-25T03:35:47.372Z,12.00
2019-04-25T03:36:47.409Z,12.00
2019-04-25T03:37:47.407Z,12.00
2019-04-25T03:38:47.351Z,16.00
2019-04-25T03:39:47.339Z,20.00
2019-04-25T03:40:47.362Z,20.00
2019-04-25T03:41:47.658Z,24.00
2019-04-25T03:42:47.297Z,28.00
2019-04-25T03:43:47.300Z,36.00
2019-04-25T03:44:47.298Z,40.00
2019-04-25T03:45:47.263Z,40.00
2019-04-25T03:46:47.253Z,48.00
2019-04-25T03:47:47.720Z,52.00
2019-04-25T03:48:48.168Z,60.00
2019-04-25T03:49:47.234Z,64.00
2019-04-25T03:50:47.238Z,72.00
2019-04-25T03:51:47.198Z,80.00
2019-04-25T03:52:47.163Z,88.00
2019-04-25T03:53:47.245Z,96.00
2019-04-25T03:54:47.145Z,104.00
2019-04-25T03:55:47.203Z,116.00
2019-04-25T03:56:53.493Z,128.00
2019-04-25T03:57:48.119Z,140.00
2019-04-25T03:58:47.116Z,152.00
2019-04-25T03:59:47.137Z,164.00
2019-04-25T04:00:47.087Z,184.00
2019-04-25T04:01:47.074Z,200.00
2019-04-25T04:02:47.075Z,220.00
2019-04-25T04:03:47.574Z,240.00
2019-04-25T04:04:47.119Z,260.00
2019-04-25T04:05:47.018Z,276.00
2019-04-25T04:06:47.036Z,292.00
2019-04-25T04:07:47.100Z,312.00
2019-04-25T04:08:46.996Z,328.00
2019-04-25T04:09:47.032Z,352.00
2019-04-25T04:10:46.978Z,372.00
2019-04-25T04:11:46.947Z,400.00
2019-04-25T04:12:47.001Z,428.00
2019-04-25T04:13:46.935Z,448.00
2019-04-25T04:14:46.926Z,472.00
2019-04-25T04:15:47.068Z,488.00
2019-04-25T04:16:46.918Z,508.00
2019-04-25T04:17:46.894Z,528.00
2019-04-25T04:18:46.920Z,544.00
2019-04-25T04:19:46.855Z,564.00
2019-04-25T04:20:47.889Z,584.00
2019-04-25T04:21:46.868Z,600.00
2019-04-25T04:23:07.893Z,612.00
2019-04-25T04:23:46.827Z,632.00
2019-04-25T04:24:46.812Z,648.00
2019-04-25T04:25:46.803Z,668.00
2019-04-25T04:26:47.196Z,692.00
2019-04-25T04:27:46.776Z,716.00
2019-04-25T04:28:46.776Z,744.00
2019-04-25T04:29:46.763Z,768.00
2019-04-25T04:30:46.739Z,788.00
2019-04-25T04:31:46.896Z,808.00
2019-04-25T04:33:59.206Z,852.00
2019-04-25T04:34:58.905Z,868.00
2019-04-25T04:35:59.307Z,884.00
2019-04-25T04:36:58.808Z,900.00
2019-04-25T04:38:38.302Z,908.00
2019-04-25T04:38:58.680Z,904.00
2019-04-25T04:39:58.671Z,908.00
2019-04-25T04:40:58.724Z,916.00
2019-04-25T04:41:58.677Z,920.00
2019-04-25T04:42:58.658Z,920.00
2019-04-25T04:43:58.614Z,920.00
2019-04-25T04:44:59.639Z,920.00
2019-04-25T04:45:59.580Z,916.00
2019-04-25T04:46:58.614Z,908.00
2019-04-25T04:47:58.627Z,900.00
2019-04-25T04:48:58.562Z,900.00
2019-04-25T04:50:05.198Z,900.00
2019-04-25T04:50:59.166Z,900.00
2019-04-25T04:51:58.532Z,896.00
2019-04-25T04:52:58.610Z,900.00
2019-04-25T04:53:58.504Z,904.00
2019-04-25T04:55:06.497Z,908.00
2019-04-25T04:55:59.503Z,912.00
2019-04-25T04:56:58.471Z,912.00
2019-04-25T04:58:01.292Z,908.00
2019-04-25T04:58:58.436Z,900.00
2019-04-25T04:59:58.421Z,900.00
2019-04-25T05:00:58.412Z,896.00
2019-04-25T05:01:58.469Z,900.00
2019-04-25T05:02:59.178Z,904.00
2019-04-25T05:03:58.443Z,912.00
2019-04-25T05:04:58.365Z,920.00
2019-04-25T05:05:59.172Z,928.00
2019-04-25T05:06:58.349Z,936.00
2019-04-25T05:07:58.419Z,940.00
2019-04-25T05:08:58.386Z,948.00
2019-04-25T05:09:58.343Z,956.00
2019-04-25T05:10:58.375Z,960.00
2019-04-25T05:11:58.313Z,968.00
2019-04-25T05:12:58.333Z,976.00
2019-04-25T05:13:59.329Z,980.00
2019-04-25T05:14:58.269Z,984.00
2019-04-25T05:15:58.307Z,1004.00
2019-04-25T05:16:58.272Z,1008.00
2019-04-25T05:17:58.247Z,1016.00
2019-04-25T05:18:58.309Z,1028.00
2019-04-25T05:19:58.203Z,1036.00
2019-04-25T05:20:58.187Z,1040.00
2019-04-25T05:21:58.199Z,1052.00
2019-04-25T05:22:58.162Z,1060.00
2019-04-25T05:23:58.195Z,1068.00
2019-04-25T05:24:58.167Z,1072.00
2019-04-25T05:25:58.177Z,1084.00
2019-04-25T05:26:58.666Z,1092.00
2019-04-25T05:28:02.983Z,1100.00
2019-04-25T05:28:59.123Z,1112.00
2019-04-25T05:29:58.097Z,1124.00
2019-04-25T05:30:58.083Z,1136.00
2019-04-25T05:31:59.152Z,1148.00
2019-04-25T05:32:58.708Z,1168.00
2019-04-25T05:33:58.058Z,1184.00
2019-04-25T05:34:58.048Z,1200.00
2019-04-25T05:35:58.661Z,1220.00
2019-04-25T05:36:58.041Z,1256.00
2019-04-25T05:37:58.185Z,1284.00
2019-04-25T05:38:57.974Z,1312.00
2019-04-25T05:39:57.968Z,1340.00
2019-04-25T05:40:57.967Z,1368.00
2019-04-25T05:41:58.992Z,1400.00
2019-04-25T05:42:57.994Z,1428.00
2019-04-25T05:43:57.955Z,1456.00
2019-04-25T05:44:57.956Z,1484.00
2019-04-25T05:45:57.927Z,1504.00
2019-04-25T05:46:57.899Z,1528.00
2019-04-25T05:47:58.290Z,1548.00
2019-04-25T05:49:01.678Z,1568.00
2019-04-25T05:49:57.863Z,1592.00
2019-04-25T05:50:57.939Z,1632.00
2019-04-25T05:51:57.835Z,1672.00
2019-04-25T05:53:19.753Z,1732.00
2019-04-25T05:53:58.211Z,1776.00
2019-04-25T05:54:58.840Z,1808.00
2019-04-25T05:55:57.803Z,1836.00
2019-04-25T05:56:57.883Z,1848.00
2019-04-25T05:57:58.770Z,1880.00
2019-04-25T05:58:58.215Z,1932.00
2019-04-25T05:59:57.778Z,2012.00
2019-04-25T06:00:57.779Z,2108.00
2019-04-25T06:01:57.726Z,2228.00
2019-04-25T06:02:57.780Z,2324.00
2019-04-25T06:03:57.743Z,2392.00
2019-04-25T06:04:57.693Z,2448.00
2019-04-25T06:05:57.690Z,2444.00
2019-04-25T06:06:57.670Z,2476.00
2019-04-25T06:07:57.674Z,2512.00
2019-04-25T06:08:57.677Z,2396.00
2019-04-25T06:09:58.166Z,2516.00
2019-04-25T06:10:57.639Z,2600.00
2019-04-25T06:11:57.633Z,2592.00
2019-04-25T06:12:57.697Z,2596.00
2019-04-25T06:14:00.220Z,2776.00
2019-04-25T06:14:57.583Z,2956.00
2019-04-25T06:15:57.697Z,3312.00
2019-04-25T06:16:59.629Z,3472.00
2019-04-25T06:17:57.567Z,3696.00
2019-04-25T06:18:57.577Z,4060.00
2019-04-25T06:19:57.537Z,6540.00
2019-04-25T06:20:57.563Z,24064.00
2019-04-25T06:21:57.521Z,55168.00
2019-04-25T06:22:58.514Z,81376.00
2019-04-25T06:23:57.617Z,91520.00
2019-04-25T06:24:59.168Z,88928.00
2019-04-25T06:25:58.535Z,91520.00
2019-04-25T06:26:57.481Z,96832.00
2019-04-25T06:27:59.235Z,91392.00
2019-04-25T06:28:59.701Z,93408.00
2019-04-25T06:30:00.637Z,84480.00
2019-04-25T06:30:58.481Z,89312.00
2019-04-25T06:32:05.680Z,86912.00
2019-04-25T06:32:58.446Z,56768.00
2019-04-25T06:33:57.379Z,90016.00
2019-04-25T06:34:57.490Z,89920.00
2019-04-25T06:35:58.384Z,73920.00
2019-04-25T06:36:59.159Z,33728.00
2019-04-25T06:37:57.388Z,8580.00
2019-04-25T06:38:57.344Z,6272.00
2019-04-25T06:39:57.322Z,5108.00
2019-04-25T06:40:57.314Z,5304.00
2019-04-25T06:41:57.351Z,4464.00
2019-04-25T06:42:57.284Z,3932.00
2019-04-25T06:43:58.475Z,4040.00
2019-04-25T06:44:58.645Z,3752.00
2019-04-25T06:45:58.478Z,3424.00
2019-04-25T06:46:58.262Z,3336.00
2019-04-25T06:47:58.256Z,3264.00
2019-04-25T06:48:57.258Z,3320.00
2019-04-25T06:49:58.187Z,3404.00
2019-04-25T06:50:58.209Z,3416.00
2019-04-25T06:51:57.189Z,3236.00
2019-04-25T06:52:57.191Z,3440.00
2019-04-25T06:53:57.676Z,3660.00
2019-04-25T06:54:57.201Z,3644.00
2019-04-25T06:55:57.178Z,3584.00
2019-04-25T06:56:57.176Z,3504.00
2019-04-25T06:58:09.241Z,3660.00
2019-04-25T06:58:58.140Z,3580.00
2019-04-25T06:59:57.102Z,3496.00
2019-04-25T07:01:01.052Z,3376.00
2019-04-25T07:01:57.075Z,3356.00
2019-04-25T07:02:57.107Z,3300.00
2019-04-25T07:03:57.032Z,3348.00
2019-04-25T07:04:57.044Z,3436.00
2019-04-25T07:05:58.672Z,3376.00
2019-04-25T07:07:09.365Z,3128.00
2019-04-25T07:08:03.367Z,3052.00
2019-04-25T07:08:58.026Z,3176.00
2019-04-25T07:09:57.771Z,3316.00
2019-04-25T07:10:57.090Z,3472.00
2019-04-25T07:11:56.978Z,3364.00
2019-04-25T07:12:59.735Z,3192.00
2019-04-25T07:13:58.032Z,2956.00
2019-04-25T07:14:57.919Z,2756.00
2019-04-25T07:15:57.914Z,2744.00
2019-04-25T07:16:56.915Z,2860.00
2019-04-25T07:17:57.905Z,2808.00
2019-04-25T07:18:56.869Z,2824.00
2019-04-25T07:19:56.892Z,2812.00
2019-04-25T07:20:57.974Z,2956.00
2019-04-25T07:21:56.894Z,3052.00
2019-04-25T07:23:03.611Z,3112.00
2019-04-25T07:23:56.853Z,3112.00
2019-04-25T07:24:56.842Z,3072.00
2019-04-25T07:25:56.789Z,3164.00
2019-04-25T07:26:56.814Z,2992.00
2019-04-25T07:27:56.793Z,3128.00
2019-04-25T07:28:56.788Z,3244.00
2019-04-25T07:29:57.222Z,3228.00
2019-04-25T07:30:56.835Z,3140.00
2019-04-25T07:31:56.763Z,3056.00
2019-04-25T07:33:01.742Z,3000.00
2019-04-25T07:33:57.756Z,2936.00
2019-04-25T07:34:57.687Z,2936.00
2019-04-25T07:35:57.175Z,2784.00
2019-04-25T07:36:56.684Z,2488.00
2019-04-25T07:38:11.195Z,2644.00
2019-04-25T07:39:07.574Z,2516.00
2019-04-25T07:39:57.642Z,2516.00
2019-04-25T07:40:56.717Z,2444.00
2019-04-25T07:41:57.611Z,2540.00
2019-04-25T07:42:57.651Z,2600.00
2019-04-25T07:43:56.685Z,2604.00
2019-04-25T07:44:56.602Z,2712.00
2019-04-25T07:45:56.810Z,2680.00
2019-04-25T07:46:56.589Z,2680.00
2019-04-25T07:47:56.692Z,2688.00
2019-04-25T07:48:56.523Z,2492.00
2019-04-25T07:49:56.542Z,2204.00
2019-04-25T07:50:56.505Z,2300.00
2019-04-25T07:51:57.196Z,2308.00
2019-04-25T07:53:53.338Z,2456.00
2019-04-25T07:54:48.511Z,2380.00
2019-04-25T07:55:48.254Z,2464.00
2019-04-25T07:57:10.243Z,2440.00
2019-04-25T07:57:47.968Z,2468.00
2019-04-25T07:58:52.164Z,2400.00
2019-04-25T08:00:39.391Z,2356.00
2019-04-25T08:01:39.076Z,2304.00
2019-04-25T08:02:51.204Z,2296.00
2019-04-25T08:03:38.269Z,2304.00
2019-04-25T08:04:38.360Z,2332.00
2019-04-25T08:05:39.322Z,2324.00
2019-04-25T08:06:38.143Z,2088.00
2019-04-25T08:07:39.018Z,2196.00
2019-04-25T08:08:38.174Z,2328.00
2019-04-25T08:09:38.066Z,2080.00
2019-04-25T08:10:38.164Z,2164.00
2019-04-25T08:11:38.276Z,2052.00
2019-04-25T08:12:51.412Z,2212.00
2019-04-25T08:13:39.850Z,2200.00
2019-04-25T08:14:38.335Z,2224.00
2019-04-25T08:15:38.359Z,2288.00
2019-04-25T08:16:38.220Z,2296.00
2019-04-25T08:17:39.612Z,2240.00
2019-04-25T08:18:38.785Z,2208.00
2019-04-25T08:19:37.886Z,2300.00
2019-04-25T08:20:38.884Z,2304.00
2019-04-25T08:21:38.414Z,2300.00
2019-04-25T08:22:50.280Z,2268.00
2019-04-25T08:23:38.941Z,2240.00
2019-04-25T08:24:37.854Z,2208.00
2019-04-25T08:25:39.369Z,2156.00
2019-04-25T08:26:37.905Z,2136.00
2019-04-25T08:27:37.807Z,2128.00
2019-04-25T08:28:49.988Z,2140.00
2019-04-25T08:29:39.759Z,2140.00
2019-04-25T08:30:38.193Z,2124.00
2019-04-25T08:31:37.793Z,2104.00
2019-04-25T08:32:39.599Z,2068.00
2019-04-25T08:33:37.746Z,2044.00
2019-04-25T08:34:38.569Z,2024.00
2019-04-25T08:35:38.186Z,2012.00
2019-04-25T08:36:38.637Z,2004.00
2019-04-25T08:37:40.382Z,1996.00
2019-04-25T08:38:38.710Z,1996.00
2019-04-25T08:39:39.722Z,1988.00
2019-04-25T08:40:38.927Z,1988.00
2019-04-25T08:41:38.636Z,1984.00
2019-04-25T08:42:38.662Z,1964.00
2019-04-25T08:43:39.433Z,1972.00
2019-04-25T08:44:39.417Z,1960.00
2019-04-25T08:45:38.478Z,1960.00
2019-04-25T08:46:39.469Z,1956.00
2019-04-25T08:47:53.668Z,1952.00
2019-04-25T08:48:37.716Z,1956.00
2019-04-25T08:49:38.158Z,1956.00
2019-04-25T08:50:40.174Z,1956.00
2019-04-25T08:51:37.891Z,1956.00
2019-04-25T08:52:37.775Z,1956.00
2019-04-25T08:53:37.508Z,1952.00
2019-04-25T08:54:41.116Z,1956.00
2019-04-25T08:55:38.291Z,1964.00
2019-04-25T08:56:37.844Z,1968.00
2019-04-25T08:57:37.944Z,1968.00
2019-04-25T08:58:37.439Z,1968.00
2019-04-25T08:59:42.399Z,1972.00
2019-04-25T09:00:40.399Z,1972.00
2019-04-25T09:01:49.266Z,1984.00
2019-04-25T09:02:38.924Z,1980.00
2019-04-25T09:03:38.002Z,1980.00
2019-04-25T09:04:40.077Z,1988.00
2019-04-25T09:05:38.967Z,1988.00
2019-04-25T09:06:38.552Z,1992.00
2019-04-25T09:07:39.045Z,1992.00
2019-04-25T09:08:48.439Z,1996.00
2019-04-25T09:09:41.121Z,2000.00
2019-04-25T09:10:38.560Z,2004.00
2019-04-25T09:11:40.022Z,2004.00
2019-04-25T09:12:38.340Z,2008.00
2019-04-25T09:13:38.632Z,2012.00
2019-04-25T09:14:39.019Z,2020.00
2019-04-25T09:15:45.514Z,2020.00
2019-04-25T09:16:38.264Z,2028.00
2019-04-25T09:17:38.036Z,2020.00
2019-04-25T09:18:48.018Z,2028.00
2019-04-25T09:19:38.385Z,2032.00
2019-04-25T09:20:40.573Z,2036.00
2019-04-25T09:21:37.823Z,2036.00
2019-04-25T09:22:38.582Z,2044.00
2019-04-25T09:23:37.920Z,2040.00
2019-04-25T09:24:38.995Z,2052.00
2019-04-25T09:25:37.215Z,2052.00
2019-04-25T09:26:38.268Z,2052.00
2019-04-25T09:27:39.713Z,2056.00
2019-04-25T09:28:38.940Z,2064.00
2019-04-25T09:29:47.365Z,2064.00
2019-04-25T09:30:38.448Z,2064.00
2019-04-25T09:31:47.153Z,2072.00
2019-04-25T09:32:37.366Z,2076.00
2019-04-25T09:33:37.414Z,2144.00
2019-04-25T09:34:38.063Z,2084.00
2019-04-25T09:35:38.119Z,2088.00
2019-04-25T09:36:50.732Z,2092.00
2019-04-25T09:37:38.789Z,2096.00
2019-04-25T09:38:37.030Z,2100.00
2019-04-25T09:39:55.812Z,2104.00
2019-04-25T09:41:55.254Z,2112.00
2019-04-25T09:42:55.413Z,2116.00
2019-04-25T09:43:55.049Z,2116.00
2019-04-25T09:44:56.374Z,2116.00
2019-04-25T09:45:54.870Z,2128.00
2019-04-25T09:46:54.866Z,2128.00
2019-04-25T09:49:10.401Z,2136.00
2019-04-25T09:51:23.596Z,2144.00
2019-04-25T09:52:22.335Z,2152.00
2019-04-25T09:53:50.085Z,2152.00
2019-04-25T09:54:23.750Z,2164.00
2019-04-25T09:55:21.077Z,2164.00
2019-04-25T09:56:23.968Z,2164.00
2019-04-25T09:57:23.875Z,2156.00
2019-04-25T09:58:23.735Z,2172.00
2019-04-25T09:59:29.242Z,2176.00
2019-04-25T10:00:23.269Z,2180.00
2019-04-25T10:01:21.886Z,2180.00
2019-04-25T10:02:20.883Z,2184.00
2019-04-25T10:03:23.785Z,2192.00
2019-04-25T10:04:23.003Z,2196.00
2019-04-25T10:05:21.051Z,2200.00
2019-04-25T10:06:20.834Z,2200.00
2019-04-25T10:07:20.900Z,2204.00
2019-04-25T10:08:20.873Z,2204.00
2019-04-25T10:09:20.810Z,2208.00
2019-04-25T10:10:21.769Z,2216.00
2019-04-25T10:11:21.782Z,2216.00
2019-04-25T10:12:20.820Z,2212.00
2019-04-25T10:13:20.794Z,2220.00
2019-04-25T10:14:20.872Z,2228.00
2019-04-25T10:15:20.763Z,2228.00
2019-04-25T10:16:21.270Z,2232.00
2019-04-25T10:17:24.289Z,2240.00
2019-04-25T10:18:20.764Z,2248.00
2019-04-25T10:19:23.466Z,2248.00
2019-04-25T10:20:35.539Z,2252.00
2019-04-25T10:21:24.376Z,2256.00
2019-04-25T10:23:43.803Z,2264.00
2019-04-25T10:24:42.733Z,2276.00
2019-04-25T10:25:44.133Z,2276.00
2019-04-25T10:26:44.104Z,2284.00
2019-04-25T10:27:41.105Z,2288.00
2019-04-25T10:28:43.786Z,2292.00
2019-04-25T10:29:48.330Z,2296.00
2019-04-25T10:30:42.967Z,2300.00
2019-04-25T10:31:44.069Z,2308.00
2019-04-25T10:32:41.157Z,2316.00
2019-04-25T10:33:45.292Z,2316.00
2019-04-25T10:34:41.185Z,2320.00
2019-04-25T10:35:52.027Z,2324.00
2019-04-25T10:36:42.638Z,2328.00
2019-04-25T10:37:41.063Z,2332.00
2019-04-25T10:40:13.403Z,2344.00
2019-04-25T10:40:53.601Z,2348.00
2019-04-25T10:41:51.275Z,2360.00
2019-04-25T10:42:53.350Z,2356.00
2019-04-25T10:43:51.237Z,2372.00
2019-04-25T10:44:53.994Z,2372.00
2019-04-25T10:45:53.373Z,2384.00
2019-04-25T10:46:51.230Z,2384.00
2019-04-25T10:47:54.647Z,2392.00
2019-04-25T10:48:54.065Z,2400.00
2019-04-25T10:49:53.305Z,2408.00
2019-04-25T10:50:53.518Z,2416.00
2019-04-25T10:51:52.423Z,2424.00
2019-04-25T10:52:51.142Z,2428.00
2019-04-25T10:53:56.018Z,2436.00
2019-04-25T10:54:51.042Z,2444.00
2019-04-25T10:55:51.749Z,2452.00
2019-04-25T10:56:52.257Z,2456.00
2019-04-25T10:57:51.127Z,2468.00
2019-04-25T10:58:54.553Z,2472.00
2019-04-25T11:00:56.980Z,2484.00
2019-04-25T11:01:56.037Z,2496.00
2019-04-25T11:02:59.023Z,2504.00
2019-04-25T11:03:56.159Z,2512.00
2019-04-25T11:04:55.912Z,2524.00
2019-04-25T11:05:56.048Z,2528.00
2019-04-25T11:06:57.283Z,2536.00
2019-04-25T11:07:56.018Z,2544.00
2019-04-25T11:10:09.384Z,2568.00
2019-04-25T11:11:08.225Z,2568.00
2019-04-25T11:12:08.900Z,2584.00
2019-04-25T11:13:11.743Z,2592.00
2019-04-25T11:14:08.220Z,2604.00
2019-04-25T11:15:09.080Z,2608.00
2019-04-25T11:16:08.093Z,2616.00
2019-04-25T11:17:08.176Z,2632.00
2019-04-25T11:18:08.307Z,2656.00
2019-04-25T11:19:09.329Z,2668.00
2019-04-25T11:20:19.589Z,2680.00
2019-04-25T11:21:09.109Z,2696.00
2019-04-25T11:22:08.735Z,2708.00
2019-04-25T11:23:08.843Z,2696.00
2019-04-25T11:24:08.083Z,2720.00
2019-04-25T11:25:08.030Z,2760.00
2019-04-25T11:26:07.962Z,2756.00
2019-04-25T11:27:08.110Z,2792.00
2019-04-25T11:28:08.789Z,2808.00
2019-04-25T11:29:07.979Z,2828.00
2019-04-25T11:30:10.787Z,2848.00
2019-04-25T11:31:08.034Z,2860.00
2019-04-25T11:32:07.948Z,2888.00
2019-04-25T11:33:08.118Z,2920.00
2019-04-25T11:34:07.917Z,2932.00
2019-04-25T11:35:09.846Z,2964.00
2019-04-25T11:36:07.857Z,2996.00
2019-04-25T11:37:07.979Z,3016.00
2019-04-25T11:38:08.174Z,3052.00
2019-04-25T11:39:07.835Z,3084.00
2019-04-25T11:40:07.855Z,3104.00
2019-04-25T11:41:07.803Z,3144.00
2019-04-25T11:42:07.827Z,3172.00
2019-04-25T11:43:07.772Z,3200.00
2019-04-25T11:44:07.777Z,3228.00
2019-04-25T11:45:07.757Z,3260.00
2019-04-25T11:46:07.891Z,3292.00
2019-04-25T11:47:08.724Z,3320.00
2019-04-25T11:48:07.780Z,3356.00
2019-04-25T11:49:07.713Z,3388.00
2019-04-25T11:50:07.698Z,3420.00
2019-04-25T11:51:10.299Z,3452.00
2019-04-25T11:52:07.794Z,3484.00
2019-04-25T11:53:07.807Z,3516.00
2019-04-25T11:54:07.705Z,3540.00
2019-04-25T11:55:08.278Z,3572.00
2019-04-25T11:56:07.720Z,3600.00
2019-04-25T11:57:07.672Z,3636.00
2019-04-25T11:58:07.622Z,3672.00
2019-04-25T11:59:08.591Z,3708.00
2019-04-25T12:00:07.575Z,3732.00
2019-04-25T12:01:07.610Z,3764.00
2019-04-25T12:02:07.575Z,3800.00
2019-04-25T12:03:17.769Z,3828.00
2019-04-25T12:04:07.680Z,3860.00
2019-04-25T12:05:07.613Z,3888.00
2019-04-25T12:06:07.606Z,3920.00
2019-04-25T12:07:08.604Z,3960.00
2019-04-25T12:08:07.560Z,3988.00
2019-04-25T12:09:07.474Z,4024.00
2019-04-25T12:10:07.468Z,4032.00
2019-04-25T12:11:07.515Z,4104.00
2019-04-25T12:12:07.452Z,4096.00
2019-04-25T12:13:07.435Z,4152.00
2019-04-25T12:14:07.468Z,4180.00
2019-04-25T12:15:07.416Z,4212.00
2019-04-25T12:16:07.421Z,4248.00
2019-04-25T12:17:07.471Z,4288.00
2019-04-25T12:18:07.378Z,4316.00
2019-04-25T12:19:07.386Z,4360.00
2019-04-25T12:20:07.397Z,4392.00
2019-04-25T12:21:07.357Z,4428.00
2019-04-25T12:22:07.349Z,4432.00
2019-04-25T12:23:10.373Z,4504.00
2019-04-25T12:24:07.402Z,4460.00
2019-04-25T12:25:07.309Z,4492.00
2019-04-25T12:26:07.322Z,4544.00
2019-04-25T12:27:07.308Z,4528.00
2019-04-25T12:28:07.284Z,4504.00
2019-04-25T12:29:07.284Z,4544.00
2019-04-25T12:30:07.337Z,4704.00
2019-04-25T12:31:07.237Z,4688.00
2019-04-25T12:32:07.238Z,4784.00
2019-04-25T12:33:18.445Z,4800.00
2019-04-25T12:34:08.206Z,4844.00
2019-04-25T12:35:07.224Z,4876.00
2019-04-25T12:36:07.200Z,4916.00
2019-04-25T12:37:07.174Z,4948.00
2019-04-25T12:38:07.200Z,4872.00
2019-04-25T12:39:07.237Z,4920.00
2019-04-25T12:40:07.164Z,4956.00
2019-04-25T12:41:07.179Z,4996.00